South Bay, Florida
Current Conditions -  °F | °C
As of 5:53 AM on Sunday 26 Oct 2014 (Local Time) from KPBI Reporting Station
Few Clouds Few Clouds  
Wind Chill: 65°   Ceiling: Unl
Heat Index: 65°   Visibility: 10mi
Dew Point: 63°   Wind: 5mph
Humidity: 93%   Direction: 310°NW
Pressure: 29.9"   Gusts: NA
Location:  26.66°N, 80.72°W
Report Text: KPBI 260953Z 31004KT 10SM FEW042 18/17 A2990 RMK AO2 SLP125 T01830172
Loading
Personal Weather Stations






























Interactive Weather Map
Tropical Storm Tracking
New forecast layout! Learn more

10-Day Weather Forecast

Advertisements
Track Severe Weather on mobile